首页
METAR-TAF:

METAR-TAF

机场 :

福賈, 意大利

纬度: 41-25-58N, 经度: 015-32-06E, 海拔: 81米

当前天气观测

该预报发布于9小时和59分钟前的15:50 UTC
风速10节,风向西转西南,在西南西转西北之间变化
温度 23°C
湿度 47%
气压 1016 hPa
能见度10公里或以上
1500米以下无云,无积雨云

METAR: LIBF 161550Z 25010KT 230V290 CAVOK 23/11 Q1016

时间: 03:49 (01:49 UTC)


TAF: 丢失

超过4000个机场的气象观测和天气预报(METAR&TAF报告)。

可查询的气象台以黄色和红色小点在地图上表示。

将鼠标移到小点上方,可查看气象台名称。

然后点击查看天气观测和预报。

如需切换地图:点击带黑十字的绿色按钮放大地图;点击带横线的绿色按钮缩小地图;或者点击绿色箭头查看邻近地区的地图。


METAR-TAF: